sensor_id;sensor_type;location;lat;lon;timestamp;pressure;altitude;pressure_sealevel;temperature;humidity
58698;BME280;44475;53.206;-6.106;2024-01-15T14:49:50;101425.50;;;21.62;43.02
58698;BME280;44475;53.206;-6.106;2024-01-15T14:52:17;101419.94;;;21.63;43.12
58698;BME280;44475;53.206;-6.106;2024-01-15T14:54:43;101418.09;;;21.64;43.17
58698;BME280;44475;53.206;-6.106;2024-01-15T14:57:09;101418.88;;;21.66;43.19
58698;BME280;44475;53.206;-6.106;2024-01-15T14:59:36;101418.72;;;21.67;43.04
58698;BME280;44475;53.206;-6.106;2024-01-15T15:02:02;101427.78;;;21.68;42.98
58698;BME280;44475;53.206;-6.106;2024-01-15T15:04:29;101418.63;;;21.69;43.03
58698;BME280;44475;53.206;-6.106;2024-01-15T15:06:56;101419.75;;;21.66;43.22
58698;BME280;44475;53.206;-6.106;2024-01-15T15:09:23;101417.75;;;21.68;42.80
58698;BME280;44475;53.206;-6.106;2024-01-15T15:11:49;101424.06;;;21.69;43.03
58698;BME280;44475;53.206;-6.106;2024-01-15T15:14:15;101423.97;;;21.70;43.17
58698;BME280;44475;53.206;-6.106;2024-01-15T15:16:41;101429.53;;;21.69;43.07
58698;BME280;44475;53.206;-6.106;2024-01-15T15:19:08;101434.00;;;21.70;42.91
58698;BME280;44475;53.206;-6.106;2024-01-15T15:21:34;101434.97;;;21.69;42.98
58698;BME280;44475;53.206;-6.106;2024-01-15T15:24:01;101431.28;;;21.70;43.00
58698;BME280;44475;53.206;-6.106;2024-01-15T15:26:27;101434.00;;;21.70;43.08
58698;BME280;44475;53.206;-6.106;2024-01-15T15:28:54;101437.59;;;21.70;42.93
58698;BME280;44475;53.206;-6.106;2024-01-15T15:31:20;101442.94;;;21.72;42.79
58698;BME280;44475;53.206;-6.106;2024-01-15T15:33:46;101433.13;;;21.69;42.78
58698;BME280;44475;53.206;-6.106;2024-01-15T15:36:12;101434.97;;;21.69;43.04
58698;BME280;44475;53.206;-6.106;2024-01-15T15:38:39;101441.41;;;21.68;42.71
58698;BME280;44475;53.206;-6.106;2024-01-15T15:41:05;101445.69;;;21.72;42.70
58698;BME280;44475;53.206;-6.106;2024-01-15T15:43:31;101440.34;;;21.70;42.75
58698;BME280;44475;53.206;-6.106;2024-01-15T15:45:58;101447.75;;;21.68;42.71
58698;BME280;44475;53.206;-6.106;2024-01-15T15:48:24;101443.16;;;21.69;43.01
58698;BME280;44475;53.206;-6.106;2024-01-15T15:50:51;101443.28;;;21.67;43.02
58698;BME280;44475;53.206;-6.106;2024-01-15T15:53:19;101448.63;;;21.69;43.00
58698;BME280;44475;53.206;-6.106;2024-01-15T15:55:46;101428.66;;;21.68;42.78
58698;BME280;44475;53.206;-6.106;2024-01-15T15:58:12;101425.06;;;21.68;42.86
58698;BME280;44475;53.206;-6.106;2024-01-15T16:00:38;101421.44;;;21.67;42.80
58698;BME280;44475;53.206;-6.106;2024-01-15T16:03:05;101433.13;;;21.69;42.76
58698;BME280;44475;53.206;-6.106;2024-01-15T16:05:31;101434.88;;;21.70;42.89
58698;BME280;44475;53.206;-6.106;2024-01-15T16:07:57;101434.97;;;21.69;42.76
58698;BME280;44475;53.206;-6.106;2024-01-15T16:10:24;101433.13;;;21.69;42.88
58698;BME280;44475;53.206;-6.106;2024-01-15T16:12:50;101429.22;;;21.74;42.63
58698;BME280;44475;53.206;-6.106;2024-01-15T16:15:23;101430.28;;;21.71;42.75
58698;BME280;44475;53.206;-6.106;2024-01-15T16:17:50;101419.50;;;21.69;42.81
58698;BME280;44475;53.206;-6.106;2024-01-15T16:20:18;101423.09;;;21.70;42.92
58698;BME280;44475;53.206;-6.106;2024-01-15T16:22:44;101425.50;;;21.75;42.59
58698;BME280;44475;53.206;-6.106;2024-01-15T16:25:11;101428.44;;;21.72;42.90
58698;BME280;44475;53.206;-6.106;2024-01-15T16:27:37;101430.19;;;21.73;43.03
58698;BME280;44475;53.206;-6.106;2024-01-15T16:30:04;101434.66;;;21.74;42.64
58698;BME280;44475;53.206;-6.106;2024-01-15T16:32:30;101434.00;;;21.70;42.67
58698;BME280;44475;53.206;-6.106;2024-01-15T16:34:57;101429.41;;;21.70;42.90
58698;BME280;44475;53.206;-6.106;2024-01-15T16:37:23;101423.09;;;21.70;42.83
58698;BME280;44475;53.206;-6.106;2024-01-15T16:39:49;101428.53;;;21.70;42.63
58698;BME280;44475;53.206;-6.106;2024-01-15T16:42:16;101431.28;;;21.70;42.72
58698;BME280;44475;53.206;-6.106;2024-01-15T16:44:42;101431.16;;;21.72;42.50
58698;BME280;44475;53.206;-6.106;2024-01-15T16:47:08;101430.28;;;21.71;42.58
58698;BME280;44475;53.206;-6.106;2024-01-15T16:49:35;101440.22;;;21.72;42.74
58698;BME280;44475;53.206;-6.106;2024-01-15T16:52:02;101443.94;;;21.71;42.57
58698;BME280;44475;53.206;-6.106;2024-01-15T16:54:32;101445.78;;;21.70;42.54
58698;BME280;44475;53.206;-6.106;2024-01-15T16:56:59;101439.56;;;21.68;42.51
58698;BME280;44475;53.206;-6.106;2024-01-15T16:59:25;101441.00;;;21.74;42.44
58698;BME280;44475;53.206;-6.106;2024-01-15T17:01:52;101441.88;;;21.75;42.31
58698;BME280;44475;53.206;-6.106;2024-01-15T17:04:18;101440.88;;;21.76;42.42
58698;BME280;44475;53.206;-6.106;2024-01-15T17:06:44;101442.06;;;21.72;42.32
58698;BME280;44475;53.206;-6.106;2024-01-15T17:09:10;101448.50;;;21.70;42.16
58698;BME280;44475;53.206;-6.106;2024-01-15T17:11:37;101446.00;;;21.67;42.07
58698;BME280;44475;53.206;-6.106;2024-01-15T17:14:03;101445.03;;;21.68;42.27
58698;BME280;44475;53.206;-6.106;2024-01-15T17:16:29;101445.03;;;21.68;42.39
58698;BME280;44475;53.206;-6.106;2024-01-15T17:18:55;101438.69;;;21.68;42.27
58698;BME280;44475;53.206;-6.106;2024-01-15T17:21:22;101434.97;;;21.69;42.20
58698;BME280;44475;53.206;-6.106;2024-01-15T17:23:48;101437.72;;;21.69;42.25
58698;BME280;44475;53.206;-6.106;2024-01-15T17:26:14;101434.88;;;21.70;42.38
58698;BME280;44475;53.206;-6.106;2024-01-15T17:28:41;101432.16;;;21.70;42.45
58698;BME280;44475;53.206;-6.106;2024-01-15T17:31:07;101433.25;;;21.68;42.14
58698;BME280;44475;53.206;-6.106;2024-01-15T17:33:33;101434.13;;;21.68;42.40
58698;BME280;44475;53.206;-6.106;2024-01-15T17:36:00;101434.13;;;21.68;42.26
58698;BME280;44475;53.206;-6.106;2024-01-15T17:38:27;101432.38;;;21.67;42.46
58698;BME280;44475;53.206;-6.106;2024-01-15T17:40:54;101436.72;;;21.70;42.31
58698;BME280;44475;53.206;-6.106;2024-01-15T17:43:20;101435.84;;;21.69;42.14
58698;BME280;44475;53.206;-6.106;2024-01-15T17:45:46;101427.47;;;21.73;42.26
58698;BME280;44475;53.206;-6.106;2024-01-15T17:48:13;101430.41;;;21.69;42.34
58698;BME280;44475;53.206;-6.106;2024-01-15T17:50:40;101438.59;;;21.69;42.27
58698;BME280;44475;53.206;-6.106;2024-01-15T17:53:08;101433.25;;;21.68;42.08
58698;BME280;44475;53.206;-6.106;2024-01-15T17:55:36;101431.38;;;21.68;42.18
58698;BME280;44475;53.206;-6.106;2024-01-15T17:58:03;101437.72;;;21.69;42.42
58698;BME280;44475;53.206;-6.106;2024-01-15T18:00:29;101441.22;;;21.71;42.35
58698;BME280;44475;53.206;-6.106;2024-01-15T18:02:55;101438.38;;;21.73;42.21
58698;BME280;44475;53.206;-6.106;2024-01-15T18:05:22;101434.88;;;21.70;42.14
58698;BME280;44475;53.206;-6.106;2024-01-15T18:07:48;101438.59;;;21.69;42.12
58698;BME280;44475;53.206;-6.106;2024-01-15T18:10:15;101447.53;;;21.72;42.22
58698;BME280;44475;53.206;-6.106;2024-01-15T18:12:41;101433.13;;;21.69;42.21
58698;BME280;44475;53.206;-6.106;2024-01-15T18:15:08;101434.25;;;21.67;42.46
58698;BME280;44475;53.206;-6.106;2024-01-15T18:17:34;101441.56;;;21.66;42.41
58698;BME280;44475;53.206;-6.106;2024-01-15T18:20:04;101443.81;;;21.73;42.10
58698;BME280;44475;53.206;-6.106;2024-01-15T18:22:31;101445.78;;;21.70;42.16
58698;BME280;44475;53.206;-6.106;2024-01-15T18:24:57;101442.94;;;21.72;42.23
58698;BME280;44475;53.206;-6.106;2024-01-15T18:27:23;101448.50;;;21.70;42.23
58698;BME280;44475;53.206;-6.106;2024-01-15T18:29:50;101435.84;;;21.69;42.33
58698;BME280;44475;53.206;-6.106;2024-01-15T18:32:16;101441.22;;;21.71;42.36
58698;BME280;44475;53.206;-6.106;2024-01-15T18:34:43;101436.72;;;21.70;42.52
58698;BME280;44475;53.206;-6.106;2024-01-15T18:37:09;101437.50;;;21.72;42.38
58698;BME280;44475;53.206;-6.106;2024-01-15T18:39:35;101441.97;;;21.73;42.86
58698;BME280;44475;53.206;-6.106;2024-01-15T18:42:02;101435.84;;;21.69;42.55
58698;BME280;44475;53.206;-6.106;2024-01-15T18:44:28;101438.38;;;21.73;42.69
58698;BME280;44475;53.206;-6.106;2024-01-15T18:46:55;101423.09;;;21.70;43.04
58698;BME280;44475;53.206;-6.106;2024-01-15T18:49:21;101438.38;;;21.73;42.86
58698;BME280;44475;53.206;-6.106;2024-01-15T18:51:49;101435.53;;;21.74;43.10
58698;BME280;44475;53.206;-6.106;2024-01-15T18:54:19;101439.13;;;21.75;43.03
58698;BME280;44475;53.206;-6.106;2024-01-15T18:56:45;101443.72;;;21.74;43.30
58698;BME280;44475;53.206;-6.106;2024-01-15T18:59:12;101441.63;;;21.78;43.10
58698;BME280;44475;53.206;-6.106;2024-01-15T19:01:39;101441.50;;;21.79;43.40
58698;BME280;44475;53.206;-6.106;2024-01-15T19:04:05;101433.13;;;21.83;43.60
58698;BME280;44475;53.206;-6.106;2024-01-15T19:06:34;101437.19;;;21.77;43.54
58698;BME280;44475;53.206;-6.106;2024-01-15T19:09:09;101436.41;;;21.75;43.64
58698;BME280;44475;53.206;-6.106;2024-01-15T19:11:42;101433.56;;;21.76;43.51
58698;BME280;44475;53.206;-6.106;2024-01-15T19:14:11;101427.13;;;21.77;43.35
58698;BME280;44475;53.206;-6.106;2024-01-15T19:16:38;101431.72;;;21.77;43.17
58698;BME280;44475;53.206;-6.106;2024-01-15T19:19:05;101429.09;;;21.75;43.52
58698;BME280;44475;53.206;-6.106;2024-01-15T19:21:32;101422.00;;;21.73;43.75
58698;BME280;44475;53.206;-6.106;2024-01-15T19:23:59;101424.41;;;21.77;43.63
58698;BME280;44475;53.206;-6.106;2024-01-15T19:26:25;101414.34;;;21.78;44.02
58698;BME280;44475;53.206;-6.106;2024-01-15T19:28:51;101420.81;;;21.77;44.16
58698;BME280;44475;53.206;-6.106;2024-01-15T19:31:18;101417.06;;;21.78;44.26
58698;BME280;44475;53.206;-6.106;2024-01-15T19:33:45;101424.53;;;21.76;44.22
58698;BME280;44475;53.206;-6.106;2024-01-15T19:36:25;101413.72;;;21.74;44.29
58698;BME280;44475;53.206;-6.106;2024-01-15T19:38:52;101422.78;;;21.75;44.58
58698;BME280;44475;53.206;-6.106;2024-01-15T19:41:19;101422.00;;;21.73;44.61
58698;BME280;44475;53.206;-6.106;2024-01-15T19:43:47;101426.47;;;21.74;44.42
58698;BME280;44475;53.206;-6.106;2024-01-15T19:46:13;101431.81;;;21.75;44.67
58698;BME280;44475;53.206;-6.106;2024-01-15T19:48:40;101429.97;;;21.76;44.75
58698;BME280;44475;53.206;-6.106;2024-01-15T19:51:07;101429.22;;;21.74;44.69
58698;BME280;44475;53.206;-6.106;2024-01-15T19:53:33;101436.16;;;21.78;44.65
58698;BME280;44475;53.206;-6.106;2024-01-15T19:55:59;101425.25;;;21.78;44.57
58698;BME280;44475;53.206;-6.106;2024-01-15T19:58:26;101428.13;;;21.76;44.78
58698;BME280;44475;53.206;-6.106;2024-01-15T20:00:52;101437.19;;;21.77;44.71
58698;BME280;44475;53.206;-6.106;2024-01-15T20:03:18;101440.88;;;21.76;44.84
58698;BME280;44475;53.206;-6.106;2024-01-15T20:05:44;101434.56;;;21.75;44.72
58698;BME280;44475;53.206;-6.106;2024-01-15T20:08:11;101437.41;;;21.74;44.87
58698;BME280;44475;53.206;-6.106;2024-01-15T20:10:37;101439.13;;;21.75;44.96
58698;BME280;44475;53.206;-6.106;2024-01-15T20:13:04;101435.53;;;21.74;45.03
58698;BME280;44475;53.206;-6.106;2024-01-15T20:15:31;101433.69;;;21.75;44.77
58698;BME280;44475;53.206;-6.106;2024-01-15T20:18:00;101439.25;;;21.73;44.79
58698;BME280;44475;53.206;-6.106;2024-01-15T20:20:26;101434.66;;;21.74;44.65
58698;BME280;44475;53.206;-6.106;2024-01-15T20:22:53;101439.25;;;21.73;44.63
58698;BME280;44475;53.206;-6.106;2024-01-15T20:25:19;101425.59;;;21.73;44.62
58698;BME280;44475;53.206;-6.106;2024-01-15T20:27:46;101430.94;;;21.75;44.64
58698;BME280;44475;53.206;-6.106;2024-01-15T20:30:12;101438.38;;;21.73;44.75
58698;BME280;44475;53.206;-6.106;2024-01-15T20:32:39;101430.28;;;21.71;44.94
58698;BME280;44475;53.206;-6.106;2024-01-15T20:35:05;101427.47;;;21.73;44.83
58698;BME280;44475;53.206;-6.106;2024-01-15T20:37:32;101425.50;;;21.75;44.54
58698;BME280;44475;53.206;-6.106;2024-01-15T20:39:58;101419.38;;;21.71;44.83
58698;BME280;44475;53.206;-6.106;2024-01-15T20:42:25;101413.81;;;21.73;44.96
58698;BME280;44475;53.206;-6.106;2024-01-15T20:44:52;101418.41;;;21.72;44.92
58698;BME280;44475;53.206;-6.106;2024-01-15T20:47:20;101421.03;;;21.74;44.69
58698;BME280;44475;53.206;-6.106;2024-01-15T20:49:46;101421.91;;;21.74;44.61
58698;BME280;44475;53.206;-6.106;2024-01-15T20:52:13;101416.66;;;21.71;45.00
58698;BME280;44475;53.206;-6.106;2024-01-15T20:54:40;101419.38;;;21.71;44.70
58698;BME280;44475;53.206;-6.106;2024-01-15T20:57:06;101404.88;;;21.70;44.95
58698;BME280;44475;53.206;-6.106;2024-01-15T20:59:32;101409.56;;;21.68;44.90
58698;BME280;44475;53.206;-6.106;2024-01-15T21:01:59;101417.88;;;21.67;44.82
58698;BME280;44475;53.206;-6.106;2024-01-15T21:04:26;101409.47;;;21.70;44.72
58698;BME280;44475;53.206;-6.106;2024-01-15T21:06:53;101415.78;;;21.70;45.01
58698;BME280;44475;53.206;-6.106;2024-01-15T21:09:22;101409.56;;;21.68;44.96
58698;BME280;44475;53.206;-6.106;2024-01-15T21:11:48;101407.72;;;21.69;44.68
58698;BME280;44475;53.206;-6.106;2024-01-15T21:14:14;101402.38;;;21.67;45.02
58698;BME280;44475;53.206;-6.106;2024-01-15T21:16:44;101404.09;;;21.68;44.88
58698;BME280;44475;53.206;-6.106;2024-01-15T21:19:12;101407.81;;;21.67;44.52
58698;BME280;44475;53.206;-6.106;2024-01-15T21:21:38;101404.09;;;21.68;44.69
58698;BME280;44475;53.206;-6.106;2024-01-15T21:24:05;101401.72;;;21.64;44.78
58698;BME280;44475;53.206;-6.106;2024-01-15T21:26:33;101401.94;;;21.60;44.30
58698;BME280;44475;53.206;-6.106;2024-01-15T21:29:00;101400.19;;;21.59;43.52
58698;BME280;44475;53.206;-6.106;2024-01-15T21:31:26;101394.66;;;21.61;43.21
58698;BME280;44475;53.206;-6.106;2024-01-15T21:33:52;101395.50;;;21.62;42.81
58698;BME280;44475;53.206;-6.106;2024-01-15T21:36:19;101392.78;;;21.62;43.13
58698;BME280;44475;53.206;-6.106;2024-01-15T21:38:46;101392.69;;;21.63;43.13
58698;BME280;44475;53.206;-6.106;2024-01-15T21:41:12;101388.97;;;21.64;43.12
58698;BME280;44475;53.206;-6.106;2024-01-15T21:43:39;101379.91;;;21.64;43.24
58698;BME280;44475;53.206;-6.106;2024-01-15T21:46:07;101385.25;;;21.65;42.94
58698;BME280;44475;53.206;-6.106;2024-01-15T21:48:33;101368.91;;;21.65;43.05
58698;BME280;44475;53.206;-6.106;2024-01-15T21:50:59;101371.38;;;21.68;43.13
58698;BME280;44475;53.206;-6.106;2024-01-15T21:53:26;101375.56;;;21.61;43.25
58698;BME280;44475;53.206;-6.106;2024-01-15T21:55:52;101375.34;;;21.64;43.15
58698;BME280;44475;53.206;-6.106;2024-01-15T21:58:19;101371.63;;;21.65;43.44
58698;BME280;44475;53.206;-6.106;2024-01-15T22:00:45;101373.38;;;21.66;43.25
58698;BME280;44475;53.206;-6.106;2024-01-15T22:03:11;101369.78;;;21.66;43.63
58698;BME280;44475;53.206;-6.106;2024-01-15T22:05:38;101362.69;;;21.63;43.36
58698;BME280;44475;53.206;-6.106;2024-01-15T22:08:05;101365.31;;;21.65;43.44
58698;BME280;44475;53.206;-6.106;2024-01-15T22:10:31;101360.72;;;21.65;43.42
58698;BME280;44475;53.206;-6.106;2024-01-15T22:12:57;101359.97;;;21.63;43.78
58698;BME280;44475;53.206;-6.106;2024-01-15T22:15:24;101358.22;;;21.62;43.53
58698;BME280;44475;53.206;-6.106;2024-01-15T22:17:50;101362.47;;;21.66;43.74
58698;BME280;44475;53.206;-6.106;2024-01-15T22:20:16;101354.41;;;21.65;43.99
58698;BME280;44475;53.206;-6.106;2024-01-15T22:22:43;101348.94;;;21.65;44.29
58698;BME280;44475;53.206;-6.106;2024-01-15T22:25:09;101349.69;;;21.67;44.12
58698;BME280;44475;53.206;-6.106;2024-01-15T22:27:35;101357.88;;;21.67;43.85
58698;BME280;44475;53.206;-6.106;2024-01-15T22:30:02;101350.53;;;21.67;44.27
58698;BME280;44475;53.206;-6.106;2024-01-15T22:32:28;101344.34;;;21.65;44.25
58698;BME280;44475;53.206;-6.106;2024-01-15T22:34:54;101346.09;;;21.66;44.24
58698;BME280;44475;53.206;-6.106;2024-01-15T22:37:21;101336.91;;;21.67;44.25
58698;BME280;44475;53.206;-6.106;2024-01-15T22:39:48;101332.47;;;21.66;44.32
58698;BME280;44475;53.206;-6.106;2024-01-15T22:42:14;101340.66;;;21.66;44.40
58698;BME280;44475;53.206;-6.106;2024-01-15T22:44:40;101341.63;;;21.65;44.40
58698;BME280;44475;53.206;-6.106;2024-01-15T22:47:07;101328.97;;;21.64;44.60
58698;BME280;44475;53.206;-6.106;2024-01-15T22:49:33;101332.56;;;21.65;44.32
58698;BME280;44475;53.206;-6.106;2024-01-15T22:51:59;101324.41;;;21.65;44.40
58698;BME280;44475;53.206;-6.106;2024-01-15T22:54:26;101325.03;;;21.68;44.29
58698;BME280;44475;53.206;-6.106;2024-01-15T22:56:52;101324.28;;;21.66;44.62
58698;BME280;44475;53.206;-6.106;2024-01-15T22:59:19;101317.97;;;21.66;44.27
58698;BME280;44475;53.206;-6.106;2024-01-15T23:01:46;101316.97;;;21.67;44.60
58698;BME280;44475;53.206;-6.106;2024-01-15T23:04:16;101314.97;;;21.69;44.50
58698;BME280;44475;53.206;-6.106;2024-01-15T23:06:43;101310.66;;;21.66;44.33
58698;BME280;44475;53.206;-6.106;2024-01-15T23:09:09;101313.38;;;21.66;44.52
58698;BME280;44475;53.206;-6.106;2024-01-15T23:11:36;101304.31;;;21.66;44.58
58698;BME280;44475;53.206;-6.106;2024-01-15T23:14:02;101311.63;;;21.65;44.51
58698;BME280;44475;53.206;-6.106;2024-01-15T23:16:29;101299.75;;;21.66;44.32
58698;BME280;44475;53.206;-6.106;2024-01-15T23:18:56;101299.75;;;21.66;44.50
58698;BME280;44475;53.206;-6.106;2024-01-15T23:21:23;101293.28;;;21.67;44.19
58698;BME280;44475;53.206;-6.106;2024-01-15T23:23:49;101300.63;;;21.67;44.41
58698;BME280;44475;53.206;-6.106;2024-01-15T23:26:18;101298.72;;;21.67;44.28
58698;BME280;44475;53.206;-6.106;2024-01-15T23:28:45;101297.88;;;21.67;44.54
58698;BME280;44475;53.206;-6.106;2024-01-15T23:31:11;101311.38;;;21.68;44.32
58698;BME280;44475;53.206;-6.106;2024-01-15T23:33:37;101299.06;;;21.76;43.90
58698;BME280;44475;53.206;-6.106;2024-01-15T23:36:07;101298.06;;;21.77;44.32
58698;BME280;44475;53.206;-6.106;2024-01-15T23:38:33;101296.31;;;21.76;44.54
58698;BME280;44475;53.206;-6.106;2024-01-15T23:41:01;101278.53;;;21.70;44.44
58698;BME280;44475;53.206;-6.106;2024-01-15T23:43:30;101276.00;;;21.80;44.81
58698;BME280;44475;53.206;-6.106;2024-01-15T23:45:56;101279.59;;;21.80;44.78
58698;BME280;44475;53.206;-6.106;2024-01-15T23:48:23;101273.03;;;21.83;44.93
58698;BME280;44475;53.206;-6.106;2024-01-15T23:50:49;101269.34;;;21.84;44.96
58698;BME280;44475;53.206;-6.106;2024-01-15T23:53:15;101272.44;;;21.91;45.63
58698;BME280;44475;53.206;-6.106;2024-01-15T23:55:42;101263.41;;;21.90;45.40
58698;BME280;44475;53.206;-6.106;2024-01-15T23:58:09;101268.09;;;21.88;45.32
